Damon, Texas
Current Conditions -  °F | °C
As of 12:53 PM on Friday 31 Oct 2014 (Local Time) from KLBX Reporting Station
Clear Clear  
Wind Chill: 76°   Ceiling: Unl
Heat Index: 76°   Visibility: 10mi
Dew Point: 42°   Wind: 16mph
Humidity: 30%   Direction: 10°N
Pressure: 30.18"   Gusts: 28mph
Location:  29.29°N, 95.74°W
Report Text: KLBX 311753Z AUTO 01014G24KT 10SM CLR 24/06 A3018 RMK AO2 SLP219 T02440056 10256 20133 50001
Loading
Personal Weather Stations






























Interactive Weather Map
Tropical Storm Tracking
New forecast layout! Learn more

10-Day Weather Forecast

Advertisements
Track Severe Weather on mobile